Aviation Digital Data Service (ADDS)

Output produced by METARs form (0313 UTC 29 August 2014)
found at http://www.aviationweather.gov/adds/metars/
 
KBFD 290253Z AUTO 00000KT 10SM CLR 08/07 A3017 RMK AO2 SLP215 T00830067 51013
KBFD 290153Z AUTO 00000KT 10SM CLR 09/07 A3017 RMK AO2 SLP214 T00940072
KBFD 290053Z AUTO 00000KT 10SM CLR 12/08 A3015 RMK AO2 SLP208 T01170083
KBFD 282353Z AUTO 34004KT 10SM CLR 14/08 A3013 RMK AO2 SLP199 T01390078 10194 20139 53006
KBFD 282253Z AUTO 33007KT 10SM CLR 17/08 A3011 RMK AO2 SLP193 T01670078
KBFD 282153Z AUTO 33009KT 10SM FEW034 18/08 A3011 RMK AO2 SLP190 T01780083
KBFD 282053Z AUTO 33010KT 10SM FEW037 19/08 A3011 RMK AO2 SLP188 T01890083 53001
KBFD 281953Z AUTO 34011KT 10SM CLR 19/08 A3010 RMK AO2 SLP186 T01890083
KBFD 281853Z AUTO 33010KT 10SM CLR 19/08 A3010 RMK AO2 SLP184 T01890078
KBFD 281753Z AUTO 33011KT 10SM SCT039 19/09 A3010 RMK AO2 SLP187 T01890089 10200 20122 58004
KBFD 281653Z AUTO 33010G17KT 300V360 10SM BKN034 18/09 A3011 RMK AO2 SLP190 T01830094
KBFD 281553Z AUTO 34007KT 10SM BKN032 18/09 A3011 RMK AO2 SLP190 T01780094
KBFD 281531Z AUTO 35009KT 10SM SCT026 BKN033 17/09 A3012 RMK AO2 T01720094
KBFD 281453Z AUTO 35010KT 10SM BKN027 BKN032 16/09 A3012 RMK AO2 SLP191 T01610094 50009
KBFD 281426Z AUTO 35008G17KT 10SM SCT029 15/09 A3012 RMK AO2 T01500089
KBFD 281353Z AUTO 33008KT 10SM OVC025 14/09 A3012 RMK AO2 SLP193 T01440094
KBFD 281253Z AUTO 33008KT 10SM BKN016 OVC023 13/09 A3011 RMK AO2 SLP188 T01330094
KBFD 281153Z AUTO 33007KT 10SM OVC018 12/10 A3009 RMK AO2 SLP183 T01220100 10139 20111 53010
KBFD 281114Z AUTO 33005KT 10SM BKN019 12/09 A3008 RMK AO2 T01220094
KBFD 281053Z AUTO 32006KT 10SM FEW015 11/09 A3007 RMK AO2 SLP176 T01110094
KBFD 281028Z AUTO 32006KT 10SM FEW014 12/09 A3007 RMK AO2 T01170094
KBFD 281017Z AUTO 31007KT 10SM BKN014 12/10 A3007 RMK AO2 T01170100
KBFD 280953Z AUTO 31007KT 10SM FEW012 12/10 A3007 RMK AO2 SLP172 T01220100
KBFD 280905Z AUTO 31006KT 10SM SCT014 13/11 A3006 RMK AO2 T01330111
KBFD 280853Z AUTO 30005KT 10SM FEW009 BKN016 BKN022 13/12 A3006 RMK AO2 SLP166 T01330117 53001
KBFD 280807Z AUTO 31005KT 10SM SCT010 BKN017 13/12 A3005 RMK AO2 T01330122
KBFD 280753Z AUTO 32005KT 10SM BKN011 BKN014 13/12 A3005 RMK AO2 CIG 007V012 SLP161 T01330117
KBFD 280653Z AUTO 34006KT 10SM BKN012 14/12 A3005 RMK AO2 SLP163 T01390122
KBFD 280651Z AUTO 34006KT 10SM BKN012 13/12 A3006 RMK AO2
KBFD 280643Z AUTO 33007KT 10SM SCT012 13/12 A3006 RMK AO2 T01330117
KBFD 280635Z AUTO 33006KT 10SM BKN012 14/12 A3006 RMK AO2 T01390122
KBFD 280553Z AUTO 33006KT 10SM FEW012 13/12 A3007 RMK AO2 SLP167 T01280117 10189 20122 58005
KBFD 280453Z AUTO 00000KT 10SM CLR 13/11 A3008 RMK AO2 SLP173 T01280111 402720122
KBFD 280353Z AUTO 34005KT 10SM CLR 14/13 A3009 RMK AO2 SLP175 T01440128
KBFD 280253Z AUTO 29004KT 10SM CLR 16/13 A3008 RMK AO2 SLP174 T01610128 50007
KBFD 280153Z AUTO 00000KT 10SM CLR 17/13 A3008 RMK AO2 SLP176 T01670133
KBFD 280053Z AUTO 32005KT 10SM CLR 17/14 A3007 RMK AO2 SLP172 T01720144
KBFD 272353Z AUTO 34008KT 10SM FEW021 19/15 A3006 RMK AO2 SLP167 T01890150 10272 20189 51002
KBFD 272253Z AUTO 34008KT 10SM CLR 22/16 A3006 RMK AO2 SLP165 T02170156
KBFD 272153Z AUTO 31011KT 10SM FEW120 23/17 A3006 RMK AO2 SLP165 T02280167
KBFD 272053Z AUTO 31009KT 10SM CLR 25/18 A3005 RMK AO2 SLP161 T02500178 55007
KBFD 271953Z AUTO 32009KT 10SM FEW035 27/18 A3004 RMK AO2 SLP153 T02720178
KBFD 271853Z AUTO 29010KT 10SM FEW032 SCT045 26/17 A3006 RMK AO2 SLP160 T02610172
KBFD 271753Z AUTO VRB06KT 10SM SCT030 BKN040 27/18 A3007 RMK AO2 SLP166 T02670178 10267 20183 58009
KBFD 271653Z AUTO VRB05KT 10SM FEW027 FEW075 25/17 A3008 RMK AO2 SLP167 T02500172
KBFD 271633Z AUTO 31007KT 10SM FEW024 25/17 A3009 RMK AO2 T02500172
KBFD 271553Z AUTO 30009KT 10SM SCT017 BKN023 24/17 A3010 RMK AO2 SLP178 T02390172
KBFD 271550Z AUTO 28006KT 10SM SCT017 SCT023 24/18 A3010 RMK AO2